createdAt,value
2019-03-04T00:02:42.125Z,65.85
2019-03-04T00:07:45.367Z,65.82
2019-03-04T00:12:48.615Z,65.22
2019-03-04T00:17:51.847Z,65.45
2019-03-04T00:22:55.121Z,65.53
2019-03-04T00:27:58.363Z,65.45
2019-03-04T00:33:01.638Z,65.71
2019-03-04T00:38:04.896Z,66.42
2019-03-04T00:43:08.143Z,65.54
2019-03-04T00:48:11.446Z,65.80
2019-03-04T00:53:14.687Z,66.06
2019-03-04T00:58:17.931Z,65.16
2019-03-04T01:03:21.224Z,65.77
2019-03-04T01:08:24.455Z,64.02
2019-03-04T01:13:27.688Z,63.09
2019-03-04T01:18:30.928Z,62.50
2019-03-04T01:23:34.169Z,62.22
2019-03-04T01:28:37.433Z,62.97
2019-03-04T01:33:40.703Z,62.87
2019-03-04T01:38:44.121Z,62.75
2019-03-04T01:43:47.381Z,62.12
2019-03-04T01:48:50.653Z,62.54
2019-03-04T01:53:53.903Z,62.64
2019-03-04T01:58:57.186Z,62.80
2019-03-04T02:04:00.453Z,62.88
2019-03-04T02:09:03.882Z,63.30
2019-03-04T02:14:07.226Z,62.92
2019-03-04T02:19:10.456Z,63.01
2019-03-04T02:24:20.259Z,62.63
2019-03-04T02:29:23.510Z,62.31
2019-03-04T02:34:26.877Z,62.44
2019-03-04T02:39:30.134Z,62.75
2019-03-04T02:44:33.383Z,62.83
2019-03-04T02:49:36.675Z,62.33
2019-03-04T02:54:39.933Z,61.93
2019-03-04T02:59:43.227Z,61.17
2019-03-04T03:04:46.537Z,60.92
2019-03-04T03:09:50.078Z,61.05
2019-03-04T03:14:53.344Z,61.71
2019-03-04T03:19:56.663Z,61.58
2019-03-04T03:25:00.441Z,61.32
2019-03-04T03:30:03.694Z,62.05
2019-03-04T03:35:08.799Z,62.06
2019-03-04T03:40:11.865Z,62.20
2019-03-04T03:45:15.210Z,60.76
2019-03-04T03:50:18.583Z,60.26
2019-03-04T03:55:21.817Z,59.91
2019-03-04T04:00:25.214Z,59.86
2019-03-04T04:05:28.463Z,60.18
2019-03-04T04:10:31.728Z,59.80
2019-03-04T04:15:34.954Z,59.87
2019-03-04T04:20:38.357Z,60.73
2019-03-04T04:25:41.595Z,60.02
2019-03-04T04:30:44.945Z,59.88
2019-03-04T04:35:48.173Z,60.51
2019-03-04T04:40:51.436Z,60.52
2019-03-04T04:45:54.685Z,60.04
2019-03-04T04:50:57.934Z,59.86
2019-03-04T04:56:01.195Z,60.45
2019-03-04T05:01:04.462Z,59.17
2019-03-04T05:06:07.841Z,59.61
2019-03-04T05:11:11.065Z,60.37
2019-03-04T05:16:14.453Z,60.75
2019-03-04T05:21:17.871Z,60.55
2019-03-04T05:26:21.093Z,60.58
2019-03-04T05:31:24.378Z,60.87
2019-03-04T05:36:27.667Z,61.64
2019-03-04T05:41:30.923Z,61.13
2019-03-04T05:46:34.170Z,61.30
2019-03-04T05:51:37.442Z,61.50
2019-03-04T05:56:40.739Z,61.51
2019-03-04T06:01:51.797Z,60.06
2019-03-04T06:06:58.458Z,60.28
2019-03-04T06:12:01.735Z,59.32
2019-03-04T06:17:05.044Z,59.04
2019-03-04T06:22:08.351Z,59.32
2019-03-04T06:27:11.604Z,59.92
2019-03-04T06:32:14.865Z,59.16
2019-03-04T06:37:18.102Z,57.92
2019-03-04T06:42:21.380Z,58.18
2019-03-04T06:47:24.616Z,58.37
2019-03-04T06:52:27.851Z,57.64
2019-03-04T06:57:36.068Z,56.53
2019-03-04T07:02:39.382Z,56.87
2019-03-04T07:07:42.614Z,57.16
2019-03-04T07:12:45.883Z,58.29
2019-03-04T07:17:49.118Z,58.38
2019-03-04T07:22:52.364Z,58.48
2019-03-04T07:27:55.730Z,56.07
2019-03-04T07:32:59.050Z,54.95
2019-03-04T07:38:14.674Z,55.46
2019-03-04T07:43:18.020Z,55.98
2019-03-04T07:48:21.253Z,55.64
2019-03-04T07:53:24.578Z,54.89
2019-03-04T07:58:27.877Z,52.63
2019-03-04T08:03:31.201Z,51.57
2019-03-04T08:08:36.333Z,50.91
2019-03-04T08:13:43.493Z,49.04
2019-03-04T08:18:46.758Z,48.65
2019-03-04T08:23:50.056Z,46.93
2019-03-04T08:28:58.654Z,45.46
2019-03-04T08:33:59.799Z,45.69
2019-03-04T08:39:05.281Z,44.87
2019-03-04T08:44:08.550Z,45.08
2019-03-04T08:49:11.858Z,45.13
2019-03-04T08:54:15.191Z,44.10
2019-03-04T08:59:18.463Z,44.71
2019-03-04T09:04:21.758Z,43.57
2019-03-04T09:09:25.094Z,43.33
2019-03-04T09:14:28.442Z,43.06
2019-03-04T09:19:31.771Z,43.69
2019-03-04T09:24:35.078Z,43.04
2019-03-04T09:29:38.407Z,41.78
2019-03-04T09:34:41.724Z,42.42
2019-03-04T09:39:44.949Z,42.89
2019-03-04T09:44:48.186Z,43.62
2019-03-04T09:49:51.540Z,43.73
2019-03-04T09:54:54.913Z,42.54
2019-03-04T09:59:58.255Z,42.49
2019-03-04T10:05:10.506Z,41.58
2019-03-04T10:10:31.830Z,38.42
2019-03-04T10:18:52.162Z,38.71
2019-03-04T10:24:21.311Z,40.50
2019-03-04T10:29:34.591Z,38.03
2019-03-04T10:34:58.602Z,38.76
2019-03-04T10:41:19.555Z,38.53
2019-03-04T10:46:55.792Z,39.60
2019-03-04T10:51:59.075Z,41.28
2019-03-04T10:57:02.316Z,44.48
2019-03-04T11:02:05.677Z,45.98
2019-03-04T11:07:08.993Z,46.63
2019-03-04T11:12:14.099Z,46.15
2019-03-04T11:17:15.620Z,45.25
2019-03-04T11:22:18.948Z,44.76
2019-03-04T11:27:22.297Z,44.94
2019-03-04T11:32:28.762Z,44.96
2019-03-04T11:37:32.045Z,43.75
2019-03-04T11:42:35.327Z,43.76
2019-03-04T11:47:38.658Z,42.36
2019-03-04T11:52:42.084Z,41.24
2019-03-04T11:57:45.358Z,41.17
2019-03-04T12:02:48.761Z,39.83
2019-03-04T12:07:52.219Z,38.45
2019-03-04T12:12:56.624Z,39.19
2019-03-04T12:17:59.975Z,39.74
2019-03-04T12:23:03.293Z,40.24
2019-03-04T12:28:06.580Z,40.06
2019-03-04T12:33:10.587Z,39.56
2019-03-04T12:38:13.910Z,38.99
2019-03-04T12:43:17.153Z,39.39
2019-03-04T12:48:21.523Z,37.33
2019-03-04T12:53:24.806Z,35.23
2019-03-04T12:58:28.062Z,34.10
2019-03-04T13:03:31.322Z,35.15
2019-03-04T13:08:34.636Z,35.32
2019-03-04T13:13:37.980Z,36.04
2019-03-04T13:18:41.262Z,37.95
2019-03-04T13:23:44.566Z,38.87
2019-03-04T13:28:47.909Z,39.92
2019-03-04T13:33:51.181Z,40.09
2019-03-04T13:38:54.477Z,40.04
2019-03-04T13:43:57.805Z,40.19
2019-03-04T13:49:01.076Z,40.35
2019-03-04T13:54:04.396Z,40.54
2019-03-04T13:59:07.723Z,40.12
2019-03-04T14:04:10.953Z,40.41
2019-03-04T14:09:14.254Z,39.84
2019-03-04T14:14:17.557Z,39.69
2019-03-04T14:19:20.823Z,39.76
2019-03-04T14:24:24.162Z,38.82
2019-03-04T14:29:27.479Z,39.05
2019-03-04T14:34:30.805Z,38.90
2019-03-04T14:39:34.069Z,39.12
2019-03-04T14:44:37.386Z,38.51
2019-03-04T14:49:44.766Z,38.73
2019-03-04T14:54:43.900Z,38.89
2019-03-04T14:59:47.202Z,38.83
2019-03-04T15:04:50.441Z,40.07
2019-03-04T15:09:53.759Z,40.11
2019-03-04T15:14:57.021Z,40.82
2019-03-04T15:20:08.984Z,41.50
2019-03-04T15:25:03.940Z,41.54
2019-03-04T15:30:08.969Z,42.17
2019-03-04T15:35:12.396Z,42.21
2019-03-04T15:40:15.816Z,42.49
2019-03-04T15:45:19.191Z,43.02
2019-03-04T15:50:22.471Z,43.36
2019-03-04T15:55:25.834Z,43.92
2019-03-04T16:00:29.108Z,43.67
2019-03-04T16:05:32.507Z,44.81
2019-03-04T16:10:37.150Z,44.98
2019-03-04T16:15:41.763Z,44.78
2019-03-04T16:20:45.147Z,44.99
2019-03-04T16:25:48.579Z,44.57
2019-03-04T16:30:52.030Z,44.54
2019-03-04T16:35:55.343Z,44.19
2019-03-04T16:40:58.612Z,44.71
2019-03-04T16:46:01.907Z,44.96
2019-03-04T16:51:05.392Z,45.03
2019-03-04T16:56:08.694Z,44.51
2019-03-04T17:01:12.500Z,44.77
2019-03-04T17:06:17.348Z,45.42
2019-03-04T17:11:19.189Z,45.46
2019-03-04T17:16:22.483Z,46.34
2019-03-04T17:21:25.822Z,46.33
2019-03-04T17:26:29.202Z,46.68
2019-03-04T17:31:32.810Z,47.05
2019-03-04T17:36:36.126Z,47.25
2019-03-04T17:41:39.453Z,46.66
2019-03-04T17:46:42.739Z,52.37
2019-03-04T17:51:46.026Z,53.16
2019-03-04T17:56:50.015Z,53.55
2019-03-04T18:01:53.392Z,55.10
2019-03-04T18:06:56.690Z,55.56
2019-03-04T18:11:59.993Z,55.27
2019-03-04T18:17:03.353Z,54.62
2019-03-04T18:22:06.730Z,55.36
2019-03-04T18:27:16.166Z,55.15
2019-03-04T18:33:34.962Z,55.56
2019-03-04T18:39:05.775Z,55.31
2019-03-04T18:44:20.495Z,55.53
2019-03-04T18:49:24.161Z,55.28
2019-03-04T18:54:27.517Z,55.11
2019-03-04T18:59:31.937Z,55.08
2019-03-04T19:04:35.685Z,54.64
2019-03-04T19:09:39.843Z,54.63
2019-03-04T19:14:43.465Z,55.03
2019-03-04T19:19:46.934Z,53.58
2019-03-04T19:24:50.349Z,53.40
2019-03-04T19:29:53.737Z,55.21
2019-03-04T19:34:57.541Z,60.70
2019-03-04T19:40:01.123Z,61.00
2019-03-04T19:45:05.014Z,62.93
2019-03-04T19:50:08.966Z,63.23
2019-03-04T19:55:12.765Z,61.47
2019-03-04T20:00:18.177Z,59.98
2019-03-04T20:05:21.651Z,58.77
2019-03-04T20:10:25.115Z,59.36
2019-03-04T20:15:28.442Z,59.08
2019-03-04T20:20:32.137Z,57.71
2019-03-04T20:25:35.500Z,56.23
2019-03-04T20:30:38.937Z,56.94
2019-03-04T20:35:42.309Z,57.67
2019-03-04T20:40:45.769Z,57.26
2019-03-04T20:45:49.351Z,57.59
2019-03-04T20:50:52.681Z,57.41
2019-03-04T20:55:56.010Z,57.29
2019-03-04T21:00:59.440Z,57.20
2019-03-04T21:06:03.080Z,57.61
2019-03-04T21:11:06.647Z,57.88
2019-03-04T21:16:10.024Z,57.92
2019-03-04T21:21:13.358Z,58.26
2019-03-04T21:26:25.842Z,58.27
2019-03-04T21:31:36.474Z,58.16
2019-03-04T21:36:48.579Z,58.54
2019-03-04T21:42:01.089Z,57.74
2019-03-04T21:47:25.953Z,58.54
2019-03-04T21:52:51.692Z,58.06
2019-03-04T21:57:56.594Z,58.16
2019-03-04T22:03:35.348Z,57.73
2019-03-04T22:08:39.102Z,58.06
2019-03-04T22:13:42.825Z,58.57
2019-03-04T22:18:46.870Z,59.41
2019-03-04T22:23:50.162Z,59.41
2019-03-04T22:28:54.799Z,60.16
2019-03-04T22:33:58.291Z,60.00
2019-03-04T22:39:01.709Z,59.72
2019-03-04T22:44:05.447Z,59.52
2019-03-04T22:49:08.854Z,59.76
2019-03-04T22:54:12.373Z,59.94
2019-03-04T22:59:16.033Z,59.72
2019-03-04T23:04:23.178Z,60.44
2019-03-04T23:09:27.837Z,60.51
2019-03-04T23:14:31.256Z,60.66
2019-03-04T23:19:34.666Z,60.89
2019-03-04T23:24:37.894Z,60.88
2019-03-04T23:29:41.267Z,60.96
2019-03-04T23:34:44.713Z,60.78
2019-03-04T23:39:47.974Z,60.89
2019-03-04T23:44:51.439Z,61.06
2019-03-04T23:50:25.221Z,61.19
2019-03-04T23:55:28.485Z,61.56
